Aviation Digital Data Service (ADDS)

Output produced by METARs form (1657 UTC 16 June 2019)
found at http://www.aviationweather.gov/metar/data/
 
LIMA 161550Z 12003KT 070V190 CAVOK 29/11 Q1014
LIMG 161550Z 10008KT CAVOK 24/16 Q1015
LIEA 161650Z 31008KT CAVOK 24/16 Q1016
TAF LIEA 161100Z 1612/1712 29010KT CAVOK 
     BECMG 1616/1618 VRB04KT 
     BECMG 1709/1711 28010KT
       
LIBA 161555Z 24005KT CAVOK 33/17 Q1011 RMK SKC VIS MIN 9999 WIND THR11 30008KT WIND THR29 /////KT BLU
TAF LIBA 161400Z 1615/1624 29008KT CAVOK
       
LIMW 161620Z AUTO 32012KT 280V350 9999 NCD 29/04 Q1014
TAF LIMW 161400Z 1615/1624 30010KT CAVOK 
     BECMG 1619/1621 VRB05KT
       
LIME 161650Z 25006KT 190V300 CAVOK 30/11 Q1013 NOSIG
TAF LIME 161100Z 1612/1712 VRB05KT CAVOK 
     PROB40 
     TEMPO 1616/1619 TSRA
       
LIPE 161650Z 31003KT 280V360 CAVOK 30/17 Q1012
TAF LIPE 161100Z 1612/1712 VRB05KT CAVOK
       
LIPB 161650Z 36009G21KT 300V060 9999 -RA SCT050CB 28/12 Q1012
TAF LIPB 161100Z 1612/1712 VRB05KT 9999 SCT035 
     TEMPO 1612/1618 TSRA
       
LIRN 161650Z 31009KT CAVOK 26/17 Q1014 NOSIG
TAF LIRN 161100Z 1612/1712 25010KT 9999 SCT030 
     BECMG 1616/1618 VRB04KT
       
LIBR 161650Z 32006KT 290V350 CAVOK 26/20 Q1012
TAF LIBR 161100Z 1612/1712 34010KT CAVOK
       
LICC 161650Z 09006KT CAVOK 27/18 Q1012
TAF LICC 161100Z 1612/1712 06012KT CAVOK 
     BECMG 1617/1619 26006KT 
     BECMG 1708/1710 06012KT
       
LIPC 161555Z 09005KT CAVOK 29/19 Q1011 RMK SKC VIS MIN 9999 WIND THR11 /////KT WIND THR29 11006KT BLU
TAF LIPC 161400Z 1615/1624 11010KT CAVOK 
     BECMG 1619/1621 26005KT
       
LIRA 161650Z 25007KT CAVOK 26/14 Q1014
TAF LIRA 161100Z 1612/1712 24010KT CAVOK 
     BECMG 1616/1618 VRB05KT 
     BECMG 1710/1712 24010KT
       
LIBC 161550Z 13004KT 110V180 CAVOK 31/17 Q1011
TAF LIBC 161100Z 1612/1712 22008KT CAVOK
       
LIED 161555Z 29007KT CAVOK 30/23 Q1015 RMK SCT SCT200 VIS MIN 9999 WIND THR35 19003KT WIND THR17 /////KT BLU
TAF LIED 160500Z 1606/1615 33007KT CAVOK
       
LIEE 161650Z 14007KT CAVOK 25/17 Q1015
TAF LIEE 161100Z 1612/1712 16010KT CAVOK 
     BECMG 1616/1618 34006KT 
     BECMG 1709/1711 16012KT
       
LIPY 161550Z 33006KT 300V020 CAVOK 27/18 Q1012
TAF LIPY 161100Z 1612/1712 35010KT CAVOK 
     BECMG 1616/1618 VRB05KT 
     BECMG 1708/1710 35010KT
       
LIRF 161650Z 28011KT CAVOK 24/18 Q1013 NOSIG
TAF LIRF 161100Z 1612/1718 29013KT CAVOK 
     BECMG 1621/1623 VRB04KT 
     TEMPO 1700/1702 1500 BR BKN006 
     BECMG 1709/1711 25010KT
       
LIMJ 161650Z 21004KT CAVOK 22/17 Q1015
TAF LIMJ 161100Z 1612/1712 16005KT 9999 SCT020
       
LIPL 161555Z 26004KT 9999 FEW015 28/12 Q1012 RMK FEW VIS MIN 9999 WIND THR31 25006KT WIND THR13 28005KT BLU
TAF LIPL 161400Z 1615/1624 27005KT 9999 SCT040 
     PROB30 
     TEMPO 1615/1618 5000 SHRA FEW020CB SCT030 
     BECMG 1619/1621 05005KT
       
LIBF 161550Z 32012KT CAVOK 34/13 Q1010
LIBV 161555Z 01011KT CAVOK 28/15 Q1012 RMK SKC VIS MIN 9999 WIND THR32 02011KT WIND THR14 01012KT BLU
TAF LIBV 161400Z 1615/1624 35010KT CAVOK
       
LIRM 161555Z 26010KT 9999 FEW030 28/21 Q1013 RMK FEW VIS MIN 9999 WIND THR06 25014KT BLU
TAF LIRM 161400Z 1615/1624 26012KT 9999 FEW025 
     BECMG 1617/1619 VRB03KT
       
LIRS 161555Z 25007KT CAVOK 29/14 Q1013 RMK SKC VIS MIN 9999 WIND THR03 26008KT WIND THR21 29007KT BLU
TAF LIRS 161400Z 1615/1624 30012KT CAVOK 
     BECMG 1617/1619 VRB03KT
       
LIBG 161550Z 02011KT CAVOK 32/18 Q1010
TAF LIBG 161400Z 1615/1624 02012KT CAVOK 
     BECMG 1617/1619 VRB04KT
       
LIPS 161555Z 03004KT 9999 FEW020 31/22 Q1011 RMK FEW VIS MIN 9999 WIND THR26 00000KT WIND THR08 32005KT BLU
TAF LIPS 161400Z 1615/1624 15005KT 9999 SCT030 
     PROB30 
     TEMPO 1615/1618 5000 SHRA FEW020CB SCT030
       
LICA 161550Z 25013KT 9999 FEW025 26/21 Q1014
TAF LICA 161100Z 1612/1712 27012KT 9999 SCT020 
     BECMG 1616/1618 VRB05KT 
     BECMG 1708/1710 27012KT
       
LICD 161550Z 34014KT CAVOK 24/20 Q1013
TAF LICD 161100Z 1612/1712 34018KT 8000 FEW030
       
LIRL 161555Z 26009KT CAVOK 27/14 Q1014 RMK SKC MON LIB NC VIS MIN 9999 WIND THR12 30009KT WIND THR30 30009KT BLU
LIBN 161555Z 02011KT CAVOK 29/20 Q1011 RMK SKC VIS MIN 9999 WIND THR14 02013KT WIND THR32 01012KT BLU
TAF LIBN 160800Z 1609/1618 34012KT CAVOK
       
LIMZ 161550Z 05005KT CAVOK 28/08 Q1014
TAF LIMZ 161100Z 1612/1712 VRB05KT CAVOK
       
LIML 161650Z 21006KT 180V270 CAVOK 31/12 Q1012 NOSIG
TAF LIML 161100Z 1612/1712 VRB05KT CAVOK
       
LIMC 161650Z 25009KT CAVOK 29/11 Q1013 NOSIG
TAF LIMC 161100Z 1612/1718 VRB05KT 9999 SCT040
       
LIPO 161550Z 26004KT CAVOK 31/08 Q1012
TAF LIPO 161100Z 1612/1712 29008KT CAVOK 
     PROB40 
     TEMPO 1615/1620 TSRA
       
LIEO 161650Z 08008KT 050V110 CAVOK 26/17 Q1015
TAF LIEO 161100Z 1612/1712 06012KT CAVOK 
     BECMG 1616/1618 23008KT 
     BECMG 1709/1711 06010KT
       
LICJ 161650Z 05018KT CAVOK 24/21 Q1013
TAF LICJ 161100Z 1612/1712 02014KT 7000 SCT010 
     BECMG 1618/1620 VRB05KT 
     BECMG 1708/1710 02014KT
       
LIBD 161650Z 03007KT 360V070 CAVOK 27/18 Q1012
TAF LIBD 161100Z 1612/1712 01010KT CAVOK 
     BECMG 1616/1619 VRB05KT
       
LICG 161550Z 29007KT CAVOK 23/20 Q1015
TAF LICG 161400Z 1615/1624 31010KT 7000 SCT010
       
LIMP 161550Z 34004KT CAVOK 30/13 Q1012
TAF LIMP 161100Z 1612/1712 30010KT CAVOK
       
LIRQ 161650Z 23009KT 210V270 CAVOK 28/17 Q1013
TAF LIRQ 161100Z 1612/1712 24010KT 9999 SCT025 
     BECMG 1616/1618 VRB05KT 
     BECMG 1709/1711 05010KT
       
LIRZ 161550Z 29007KT 220V320 CAVOK 30/11 Q1013
TAF LIRZ 161100Z 1612/1712 VRB05KT 9999 FEW030 
     BECMG 1710/1712 04010KT
       
LIBP 161550Z 03007KT 360V070 CAVOK 27/20 Q1012
TAF LIBP 161100Z 1612/1712 03010KT CAVOK 
     BECMG 1616/1618 VRB05KT 
     BECMG 1709/1711 03010KT
       
LIMS 161555Z 35007KT CAVOK 30/11 Q1012 RMK SKC VIS MIN 9999 WIND THR30 32007KT BLU
LIRP 161645Z 28008KT 9999 FEW040 23/19 Q1015 NOSIG
TAF LIRP 161100Z 1612/1712 27010KT 9999 SCT040 
     BECMG 1619/1621 12005KT 
     TEMPO 1621/1706 3000 BR SCT015 
     PROB30 
     TEMPO 1700/1705 0600 FG BKN003 
     BECMG 1710/1712 27010KT
       
LIRI 161550Z 23007KT CAVOK 26/22 Q1014
LIRE 161555Z 28012KT CAVOK 24/20 Q1015 RMK SKC VIS MIN 9999 WIND THR13 29011KT WIND THR31 /////KT BLU
TAF LIRE 161400Z 1615/1624 27013KT CAVOK 
     BECMG 1616/1618 33005KT
       
LICR 161550Z 01013KT CAVOK 28/19 Q1013
TAF LICR 161100Z 1612/1712 35018KT CAVOK 
     BECMG 1618/1620 VRB06KT
       
LIPR 161650Z 06003KT 020V090 CAVOK 29/14 Q1012
TAF LIPR 161400Z 1615/1624 02010KT CAVOK 
     BECMG 1616/1618 VRB05KT
       
LIPQ 161650Z 22004KT 170V260 CAVOK 30/17 Q1011
TAF LIPQ 161100Z 1612/1712 22010KT CAVOK 
     BECMG 1616/1618 VRB05KT
       
LICZ 161555Z 10009KT CAVOK 30/17 Q1013 RMK SCT SCT200 VIS MIN 9999 WIND THR28 10008KT WIND THR10 12008KT A2993 BLU
TAF LICZ 161400Z 1615/1624 09012KT 9999 FEW020
       
LIMF 161650Z 07003KT 040V110 CAVOK 28/11 Q1014
TAF LIMF 161100Z 1612/1712 VRB05KT CAVOK 
     PROB30 
     TEMPO 1615/1619 TSRA
       
LICT 161555Z 35016KT 9999 FEW010 25/23 Q1013 RMK FEW VIS MIN 9999 WIND THR13 /////KT BLU
TAF LICT 161400Z 1615/1624 35012KT 9999 FEW020
       
LIPH 161650Z 19005KT 9999 FEW060 30/20 Q1011
TAF LIPH 161100Z 1612/1712 VRB05KT 9999 FEW040
       
LIRU 161550Z 23008KT CAVOK 29/14 Q1013
TAF LIRU 161400Z 1615/1624 24010KT CAVOK 
     BECMG 1616/1618 VRB05KT
       
LIPZ 161650Z 18004KT 140V200 CAVOK 28/21 Q1011 NOSIG
TAF LIPZ 161100Z 1612/1718 16010KT CAVOK 
     BECMG 1616/1619 04007KT 
     BECMG 1708/1710 16010KT 
     BECMG 1716/1718 04007KT
       
LIPX 161650Z 25007KT 210V270 CAVOK 31/10 Q1012
TAF LIPX 161400Z 1615/1624 24010KT CAVOK 
     BECMG 1620/1622 04006KT
       
LIRV 161555Z /////KT CAVOK 28/15 Q1014
TAF LIRV 161400Z 1615/1624 26014KT 9999 SCT025 
     BECMG 1616/1618 VRB03KT